Time;durP1;ratioP1;P1;durP2;ratioP2;P2;SDS_P1;SDS_P2;PMS_P1;PMS_P2;Temp;Humidity;BMP_temperature;BMP_pressure;BME280_temperature;BME280_humidity;BME280_pressure;Samples;Min_cycle;Max_cycle;Signal;HPM_P1;HPM_P2
2022/06/24 00:01:36;;;;;;;4.72;2.85;;;;;;;;;;5088461;28;20040;-58
2022/06/24 00:04:02;;;;;;;15.88;2.90;;;;;;;;;;5087679;28;20043;-58
2022/06/24 00:06:29;;;;;;;11.55;3.05;;;;;;;;;;5087803;28;20044;-58
2022/06/24 00:08:58;;;;;;;4.83;2.87;;;;;;;;;;5087959;28;20036;-58
2022/06/24 00:11:25;;;;;;;3.30;2.88;;;;;;;;;;5087588;28;20039;-58
2022/06/24 00:13:51;;;;;;;4.53;2.72;;;;;;;;;;5086854;28;20052;-58
2022/06/24 00:16:17;;;;;;;3.95;2.45;;;;;;;;;;5087409;28;20044;-58
2022/06/24 00:18:44;;;;;;;6.07;3.08;;;;;;;;;;5087689;28;20055;-58
2022/06/24 00:21:12;;;;;;;6.32;3.00;;;;;;;;;;5086023;28;20040;-59
2022/06/24 00:23:40;;;;;;;5.32;3.13;;;;;;;;;;5087775;28;20047;-58
2022/06/24 00:26:07;;;;;;;10.15;3.45;;;;;;;;;;5087911;28;20036;-58
2022/06/24 00:28:33;;;;;;;7.95;3.70;;;;;;;;;;5085773;28;20040;-58
2022/06/24 00:31:02;;;;;;;4.53;2.60;;;;;;;;;;5067750;28;20124;-58
2022/06/24 00:33:32;;;;;;;3.75;2.85;;;;;;;;;;5085297;28;20114;-58
2022/06/24 00:35:59;;;;;;;8.32;2.78;;;;;;;;;;5086386;28;20052;-58
2022/06/24 00:38:25;;;;;;;5.00;2.80;;;;;;;;;;5087251;28;20044;-58
2022/06/24 00:40:53;;;;;;;3.95;2.92;;;;;;;;;;5087337;28;20477;-58
2022/06/24 00:43:24;;;;;;;6.00;2.78;;;;;;;;;;5086933;28;20051;-58
2022/06/24 00:45:52;;;;;;;5.20;3.60;;;;;;;;;;5087035;28;20036;-58
2022/06/24 00:48:19;;;;;;;6.35;2.95;;;;;;;;;;5086608;28;20043;-58
2022/06/24 00:50:47;;;;;;;6.53;2.80;;;;;;;;;;5086577;28;20032;-58
2022/06/24 00:53:14;;;;;;;8.98;3.28;;;;;;;;;;5087110;28;20048;-58
2022/06/24 00:55:41;;;;;;;4.30;3.13;;;;;;;;;;5086963;28;20397;-60
2022/06/24 00:58:12;;;;;;;5.70;3.00;;;;;;;;;;5087443;28;20228;-58
2022/06/24 01:00:41;;;;;;;5.18;3.33;;;;;;;;;;5086747;28;20068;-58
2022/06/24 01:03:07;;;;;;;6.85;3.40;;;;;;;;;;5087540;28;20135;-57
2022/06/24 01:05:33;;;;;;;5.82;3.40;;;;;;;;;;5086005;28;20063;-58
2022/06/24 01:08:06;;;;;;;9.60;3.30;;;;;;;;;;5087074;28;20634;-58
2022/06/24 01:10:32;;;;;;;3.67;2.95;;;;;;;;;;5086309;28;20067;-58
2022/06/24 01:12:58;;;;;;;6.00;3.55;;;;;;;;;;5086028;28;20150;-57
2022/06/24 01:15:25;;;;;;;4.95;3.30;;;;;;;;;;5086376;28;20047;-58
2022/06/24 01:17:51;;;;;;;5.80;3.00;;;;;;;;;;5086733;28;20224;-58
2022/06/24 01:20:18;;;;;;;5.70;3.22;;;;;;;;;;5085884;28;20044;-58
2022/06/24 01:22:44;;;;;;;6.90;3.25;;;;;;;;;;5086414;28;20044;-58
2022/06/24 01:25:11;;;;;;;5.22;2.90;;;;;;;;;;5086367;28;20123;-62
2022/06/24 01:27:37;;;;;;;5.68;3.20;;;;;;;;;;5085774;28;20036;-57
2022/06/24 01:30:04;;;;;;;4.95;3.30;;;;;;;;;;5086531;28;20043;-58
2022/06/24 01:32:30;;;;;;;11.95;3.60;;;;;;;;;;5085905;28;20477;-58
2022/06/24 01:34:56;;;;;;;15.73;3.28;;;;;;;;;;5085766;28;20055;-58
2022/06/24 01:37:23;;;;;;;7.72;3.40;;;;;;;;;;5085918;28;20059;-58
2022/06/24 01:39:49;;;;;;;5.10;2.95;;;;;;;;;;5086058;28;20079;-58
2022/06/24 01:42:16;;;;;;;7.22;3.15;;;;;;;;;;5085631;28;20169;-58
2022/06/24 01:44:42;;;;;;;6.00;3.60;;;;;;;;;;5086205;28;20044;-58
2022/06/24 01:47:09;;;;;;;3.83;3.03;;;;;;;;;;5086536;28;20050;-58
2022/06/24 01:49:35;;;;;;;4.00;3.15;;;;;;;;;;5083807;28;20048;-58
2022/06/24 01:52:01;;;;;;;4.47;3.22;;;;;;;;;;5085890;28;20082;-58
2022/06/24 01:54:28;;;;;;;6.38;3.35;;;;;;;;;;5085251;28;20047;-58
2022/06/24 01:56:54;;;;;;;9.52;3.05;;;;;;;;;;5085689;28;20052;-58
2022/06/24 01:59:20;;;;;;;3.58;2.83;;;;;;;;;;5085611;28;20402;-58
2022/06/24 02:01:47;;;;;;;5.88;3.10;;;;;;;;;;5085736;28;20093;-58
2022/06/24 02:04:13;;;;;;;6.13;3.25;;;;;;;;;;5084674;28;20514;-58
2022/06/24 02:06:39;;;;;;;3.88;3.20;;;;;;;;;;5084823;28;20052;-58
2022/06/24 02:09:06;;;;;;;6.35;3.70;;;;;;;;;;5085467;28;20119;-58
2022/06/24 02:14:19;;;;;;;4.63;3.38;;;;;;;;;;5084922;28;20127;-57
2022/06/24 02:16:46;;;;;;;6.05;3.55;;;;;;;;;;5085705;28;20515;-58
2022/06/24 02:19:12;;;;;;;7.57;4.10;;;;;;;;;;5083804;28;20420;-58
2022/06/24 02:21:38;;;;;;;7.70;4.00;;;;;;;;;;5084595;28;20044;-58
2022/06/24 02:24:05;;;;;;;6.90;4.20;;;;;;;;;;5085538;28;20488;-58
2022/06/24 02:26:32;;;;;;;9.55;5.30;;;;;;;;;;5085330;28;20036;-58
2022/06/24 02:28:58;;;;;;;11.68;4.53;;;;;;;;;;5085217;28;20079;-58
2022/06/24 02:31:24;;;;;;;12.23;5.90;;;;;;;;;;5085047;28;20070;-58
2022/06/24 02:33:50;;;;;;;7.25;4.30;;;;;;;;;;5084288;28;20454;-58
2022/06/24 02:36:18;;;;;;;7.82;3.85;;;;;;;;;;5084488;28;20052;-58
2022/06/24 02:38:44;;;;;;;5.60;3.65;;;;;;;;;;5085418;28;20051;-58
2022/06/24 02:41:10;;;;;;;6.93;4.22;;;;;;;;;;5085130;28;20040;-57
2022/06/24 02:43:39;;;;;;;5.50;3.67;;;;;;;;;;5085318;28;20040;-58
2022/06/24 02:46:07;;;;;;;4.88;3.78;;;;;;;;;;5084796;28;20457;-58
2022/06/24 02:48:34;;;;;;;6.53;4.32;;;;;;;;;;5082543;28;20094;-59
2022/06/24 02:51:01;;;;;;;9.75;4.65;;;;;;;;;;5083810;28;20048;-58
2022/06/24 02:53:28;;;;;;;11.75;6.07;;;;;;;;;;5084970;28;20047;-58
2022/06/24 02:55:56;;;;;;;17.10;5.95;;;;;;;;;;5084224;28;20147;-58
2022/06/24 02:58:22;;;;;;;13.73;4.93;;;;;;;;;;5084358;28;20590;-57
2022/06/24 03:00:49;;;;;;;11.43;4.90;;;;;;;;;;5084656;28;20059;-58
2022/06/24 03:03:16;;;;;;;11.50;4.30;;;;;;;;;;5084586;28;20128;-58
2022/06/24 03:05:42;;;;;;;53.47;8.10;;;;;;;;;;5084395;28;20036;-58
2022/06/24 03:08:09;;;;;;;10.18;4.65;;;;;;;;;;5085504;28;20290;-58
2022/06/24 03:10:36;;;;;;;12.57;3.90;;;;;;;;;;5085104;28;20505;-58
2022/06/24 03:13:02;;;;;;;4.65;3.78;;;;;;;;;;5084334;28;20079;-58
2022/06/24 03:15:29;;;;;;;4.03;3.15;;;;;;;;;;5084674;28;20044;-58
2022/06/24 03:17:56;;;;;;;5.72;3.78;;;;;;;;;;5084778;28;20040;-58
2022/06/24 03:20:22;;;;;;;5.03;3.83;;;;;;;;;;5084018;28;20123;-58
2022/06/24 03:22:48;;;;;;;5.10;3.50;;;;;;;;;;5084857;28;20136;-58
2022/06/24 03:25:14;;;;;;;4.60;3.60;;;;;;;;;;5084506;28;20676;-58
2022/06/24 03:27:40;;;;;;;4.97;3.53;;;;;;;;;;5084138;28;20087;-59
2022/06/24 03:30:08;;;;;;;6.32;3.65;;;;;;;;;;5084442;28;20032;-58
2022/06/24 03:32:34;;;;;;;6.77;3.50;;;;;;;;;;5084382;28;20083;-57
2022/06/24 03:35:00;;;;;;;4.40;3.25;;;;;;;;;;5083965;28;20123;-57
2022/06/24 03:37:27;;;;;;;4.07;3.50;;;;;;;;;;5084112;28;20068;-58
2022/06/24 03:39:53;;;;;;;4.05;3.65;;;;;;;;;;5084115;28;20430;-58
2022/06/24 03:42:19;;;;;;;8.05;3.72;;;;;;;;;;5084255;28;20040;-57
2022/06/24 03:44:45;;;;;;;4.45;3.47;;;;;;;;;;5084720;28;20036;-58
2022/06/24 03:47:11;;;;;;;9.98;3.83;;;;;;;;;;5084094;28;20039;-58
2022/06/24 03:49:38;;;;;;;5.57;3.90;;;;;;;;;;5084411;28;20047;-58
2022/06/24 03:52:04;;;;;;;6.18;3.80;;;;;;;;;;5084493;28;20482;-58
2022/06/24 03:54:30;;;;;;;8.25;4.03;;;;;;;;;;5083894;28;20073;-58
2022/06/24 03:56:56;;;;;;;7.47;4.20;;;;;;;;;;5085375;28;20079;-57
2022/06/24 03:59:23;;;;;;;4.53;3.67;;;;;;;;;;5087909;28;20109;-58
2022/06/24 04:01:49;;;;;;;5.45;3.47;;;;;;;;;;5087990;28;20043;-58
2022/06/24 04:04:15;;;;;;;7.25;3.70;;;;;;;;;;5087110;28;20036;-58
2022/06/24 04:06:41;;;;;;;6.47;3.50;;;;;;;;;;5088260;28;20082;-58
2022/06/24 04:09:07;;;;;;;4.65;3.65;;;;;;;;;;5087966;28;20050;-58
2022/06/24 04:11:34;;;;;;;5.18;3.67;;;;;;;;;;5087698;28;20044;-57
2022/06/24 04:14:00;;;;;;;5.10;3.40;;;;;;;;;;5087634;28;20754;-58
2022/06/24 04:16:26;;;;;;;7.25;3.88;;;;;;;;;;5087376;28;20584;-58
2022/06/24 04:18:53;;;;;;;6.68;3.78;;;;;;;;;;5087076;28;20079;-58
2022/06/24 04:21:19;;;;;;;8.43;4.13;;;;;;;;;;5087580;28;20044;-58
2022/06/24 04:23:49;;;;;;;15.55;4.65;;;;;;;;;;5087350;28;20126;-58
2022/06/24 04:26:16;;;;;;;5.13;3.70;;;;;;;;;;5087286;28;20043;-58
2022/06/24 04:28:42;;;;;;;8.43;3.85;;;;;;;;;;5087247;28;20036;-58
2022/06/24 04:31:08;;;;;;;6.05;3.58;;;;;;;;;;5087299;28;20489;-58
2022/06/24 04:33:34;;;;;;;6.55;3.63;;;;;;;;;;5086617;28;20096;-58
2022/06/24 04:36:00;;;;;;;10.07;5.22;;;;;;;;;;5087011;28;20060;-58
2022/06/24 04:38:27;;;;;;;8.50;5.20;;;;;;;;;;5087354;28;20044;-58
2022/06/24 04:40:53;;;;;;;7.43;5.45;;;;;;;;;;5087599;28;20093;-58
2022/06/24 04:43:19;;;;;;;21.02;6.90;;;;;;;;;;5086747;28;20087;-58
2022/06/24 04:45:45;;;;;;;10.07;6.45;;;;;;;;;;5087635;28;20597;-58
2022/06/24 04:48:13;;;;;;;16.25;7.97;;;;;;;;;;5087132;28;20043;-58
2022/06/24 04:50:40;;;;;;;15.60;8.27;;;;;;;;;;5087248;28;20040;-57
2022/06/24 04:53:06;;;;;;;21.13;7.85;;;;;;;;;;5087490;28;20063;-58
2022/06/24 04:55:32;;;;;;;14.57;6.15;;;;;;;;;;5087385;28;20109;-58
2022/06/24 04:57:58;;;;;;;12.35;6.07;;;;;;;;;;5086346;28;20047;-58
2022/06/24 05:00:25;;;;;;;9.85;5.25;;;;;;;;;;5086506;28;20039;-57
2022/06/24 05:02:52;;;;;;;7.75;4.38;;;;;;;;;;5086959;28;20048;-58
2022/06/24 05:05:18;;;;;;;7.63;4.63;;;;;;;;;;5085849;28;20050;-58
2022/06/24 05:07:44;;;;;;;8.13;3.85;;;;;;;;;;5086682;28;20456;-58
2022/06/24 05:10:10;;;;;;;8.32;3.90;;;;;;;;;;5086533;28;20497;-58
2022/06/24 05:12:36;;;;;;;8.05;4.20;;;;;;;;;;5086863;28;20039;-58
2022/06/24 05:15:02;;;;;;;9.57;4.40;;;;;;;;;;5087008;28;20044;-58
2022/06/24 05:17:29;;;;;;;6.57;3.70;;;;;;;;;;5086048;28;20071;-58
2022/06/24 05:19:55;;;;;;;9.25;3.85;;;;;;;;;;5085726;28;20110;-58
2022/06/24 05:22:21;;;;;;;8.27;3.97;;;;;;;;;;5084456;28;20486;-59
2022/06/24 05:24:47;;;;;;;6.90;3.58;;;;;;;;;;5080609;28;20040;-59
2022/06/24 05:27:13;;;;;;;6.63;3.90;;;;;;;;;;5078652;28;20186;-59
2022/06/24 05:29:39;;;;;;;7.32;4.30;;;;;;;;;;5079676;28;20045;-59
2022/06/24 05:32:06;;;;;;;8.18;4.05;;;;;;;;;;5081960;28;20429;-59
2022/06/24 05:34:32;;;;;;;6.88;4.00;;;;;;;;;;5079024;28;20037;-59
2022/06/24 05:36:58;;;;;;;10.48;4.32;;;;;;;;;;5081729;28;20067;-59
2022/06/24 05:39:24;;;;;;;7.53;4.38;;;;;;;;;;5083643;28;20044;-58
2022/06/24 05:41:50;;;;;;;8.38;3.92;;;;;;;;;;5083767;28;20504;-59
2022/06/24 05:44:17;;;;;;;7.22;4.30;;;;;;;;;;5083453;28;20866;-58
2022/06/24 05:46:43;;;;;;;7.75;4.32;;;;;;;;;;5083923;28;20059;-59
2022/06/24 05:49:09;;;;;;;6.78;3.60;;;;;;;;;;5083322;28;20036;-58
2022/06/24 05:51:36;;;;;;;7.18;3.83;;;;;;;;;;5079439;28;20466;-59
2022/06/24 05:56:47;;;;;;;6.75;3.70;;;;;;;;;;5078433;28;20636;-58
2022/06/24 05:59:14;;;;;;;5.53;3.92;;;;;;;;;;5073111;28;20036;-59
2022/06/24 06:01:40;;;;;;;6.97;3.65;;;;;;;;;;5096209;28;20037;-61
2022/06/24 06:04:06;;;;;;;8.38;3.70;;;;;;;;;;5072763;28;20055;-59
2022/06/24 06:06:34;;;;;;;6.28;3.70;;;;;;;;;;5069843;28;20048;-59
2022/06/24 06:09:00;;;;;;;9.63;4.30;;;;;;;;;;5070722;28;20048;-59
2022/06/24 06:11:27;;;;;;;6.43;3.50;;;;;;;;;;5075594;28;20052;-59
2022/06/24 06:13:54;;;;;;;8.80;4.20;;;;;;;;;;5066264;28;20032;-59
2022/06/24 06:16:22;;;;;;;6.53;3.70;;;;;;;;;;5073925;28;20040;-59
2022/06/24 06:18:48;;;;;;;7.30;2.95;;;;;;;;;;5076205;28;20048;-59
2022/06/24 06:21:16;;;;;;;6.07;3.92;;;;;;;;;;5098704;28;20044;-59
2022/06/24 06:23:43;;;;;;;6.03;2.88;;;;;;;;;;5076395;28;20044;-60
2022/06/24 06:26:10;;;;;;;5.15;3.03;;;;;;;;;;5099706;28;20493;-59
2022/06/24 06:28:37;;;;;;;3.30;2.28;;;;;;;;;;5080029;28;20035;-59
2022/06/24 06:31:04;;;;;;;3.97;2.38;;;;;;;;;;5082770;28;20093;-59
2022/06/24 06:33:31;;;;;;;2.92;2.40;;;;;;;;;;5080882;28;20048;-59
2022/06/24 06:36:02;;;;;;;5.45;2.92;;;;;;;;;;5079426;28;20048;-59
2022/06/24 06:38:30;;;;;;;8.60;2.58;;;;;;;;;;5104837;27;20040;-59
2022/06/24 06:40:56;;;;;;;3.88;2.65;;;;;;;;;;5082885;28;21395;-59
2022/06/24 06:43:22;;;;;;;4.97;2.50;;;;;;;;;;5082172;28;20036;-59
2022/06/24 06:45:48;;;;;;;4.50;2.45;;;;;;;;;;5076935;28;20453;-59
2022/06/24 06:48:15;;;;;;;3.60;2.40;;;;;;;;;;5069608;28;20477;-59
2022/06/24 06:50:41;;;;;;;4.47;2.72;;;;;;;;;;5082842;28;20548;-60
2022/06/24 06:53:07;;;;;;;4.07;2.70;;;;;;;;;;5083056;28;20087;-59
2022/06/24 06:55:33;;;;;;;4.15;2.50;;;;;;;;;;5073414;28;20035;-59
2022/06/24 06:57:59;;;;;;;6.70;3.10;;;;;;;;;;5073424;28;20043;-59
2022/06/24 07:00:25;;;;;;;3.78;2.45;;;;;;;;;;5082262;28;20048;-59
2022/06/24 07:02:52;;;;;;;5.20;2.97;;;;;;;;;;5082316;28;20051;-60
2022/06/24 07:05:18;;;;;;;4.75;3.00;;;;;;;;;;5070855;28;20072;-59
2022/06/24 07:07:45;;;;;;;6.10;3.17;;;;;;;;;;5072507;28;20063;-59
2022/06/24 07:10:11;;;;;;;4.82;2.67;;;;;;;;;;5073566;28;20522;-60
2022/06/24 07:12:37;;;;;;;6.45;2.83;;;;;;;;;;5076524;28;20040;-59
2022/06/24 07:15:03;;;;;;;4.88;3.10;;;;;;;;;;5076275;28;20393;-59
2022/06/24 07:17:30;;;;;;;7.97;2.70;;;;;;;;;;5071492;28;20527;-59
2022/06/24 07:19:56;;;;;;;4.70;3.10;;;;;;;;;;5076126;28;20040;-59
2022/06/24 07:22:22;;;;;;;5.85;3.00;;;;;;;;;;5077558;28;20052;-59
2022/06/24 07:24:48;;;;;;;7.60;3.35;;;;;;;;;;5073015;28;20036;-59
2022/06/24 07:27:14;;;;;;;5.97;2.90;;;;;;;;;;5079217;28;20040;-59
2022/06/24 07:29:40;;;;;;;7.38;3.55;;;;;;;;;;5082921;28;20040;-59
2022/06/24 07:32:07;;;;;;;7.28;3.63;;;;;;;;;;5077686;28;20127;-59
2022/06/24 07:34:35;;;;;;;6.68;3.25;;;;;;;;;;5069449;28;20063;-59
2022/06/24 07:37:02;;;;;;;9.18;3.00;;;;;;;;;;5080005;28;20128;-59
2022/06/24 07:39:29;;;;;;;7.68;3.70;;;;;;;;;;5083236;28;20048;-60
2022/06/24 07:41:55;;;;;;;7.80;3.55;;;;;;;;;;5086312;28;20044;-59
2022/06/24 07:44:21;;;;;;;4.53;3.40;;;;;;;;;;5082263;28;20032;-59
2022/06/24 07:46:48;;;;;;;5.72;3.80;;;;;;;;;;5076697;28;20059;-59
2022/06/24 07:49:14;;;;;;;7.03;3.90;;;;;;;;;;5075627;28;20048;-60
2022/06/24 07:51:40;;;;;;;7.88;3.97;;;;;;;;;;5083968;28;20500;-60
2022/06/24 07:54:08;;;;;;;9.05;4.10;;;;;;;;;;5079788;28;20036;-60
2022/06/24 07:59:20;;;;;;;6.72;4.57;;;;;;;;;;5077527;28;20048;-59
2022/06/24 08:01:46;;;;;;;10.65;4.60;;;;;;;;;;5086206;28;20260;-60
2022/06/24 08:04:12;;;;;;;11.57;4.85;;;;;;;;;;5074708;28;20036;-60
2022/06/24 08:06:40;;;;;;;14.25;4.50;;;;;;;;;;5078198;28;20520;-60
2022/06/24 08:09:07;;;;;;;13.27;5.03;;;;;;;;;;5086602;28;20051;-59
2022/06/24 08:11:33;;;;;;;6.63;4.63;;;;;;;;;;5083638;28;20041;-60
2022/06/24 08:14:00;;;;;;;7.13;4.72;;;;;;;;;;5081416;28;20376;-60
2022/06/24 08:16:26;;;;;;;8.02;5.35;;;;;;;;;;5074255;28;20133;-60
2022/06/24 08:18:52;;;;;;;9.68;5.22;;;;;;;;;;5084787;28;20036;-59
2022/06/24 08:21:19;;;;;;;8.02;4.90;;;;;;;;;;5080582;28;20453;-60
2022/06/24 08:23:45;;;;;;;8.88;5.57;;;;;;;;;;5084944;28;20046;-59
2022/06/24 08:26:11;;;;;;;10.63;5.40;;;;;;;;;;5083579;28;20478;-60
2022/06/24 08:28:37;;;;;;;6.82;4.72;;;;;;;;;;5085642;28;20040;-60
2022/06/24 08:31:03;;;;;;;5.72;4.63;;;;;;;;;;5085640;28;20051;-59
2022/06/24 08:33:30;;;;;;;12.32;5.35;;;;;;;;;;5075205;28;20260;-59
2022/06/24 08:35:56;;;;;;;11.85;5.82;;;;;;;;;;5080170;28;20048;-59
2022/06/24 08:38:22;;;;;;;11.65;5.78;;;;;;;;;;5078178;28;20040;-59
2022/06/24 08:40:49;;;;;;;10.82;6.03;;;;;;;;;;5084693;28;20036;-60
2022/06/24 08:43:15;;;;;;;9.27;6.05;;;;;;;;;;5072024;28;20117;-60
2022/06/24 08:45:42;;;;;;;9.38;6.15;;;;;;;;;;5076913;28;20529;-60
2022/06/24 08:48:08;;;;;;;11.20;6.90;;;;;;;;;;5072779;28;20119;-59
2022/06/24 08:50:34;;;;;;;11.52;6.50;;;;;;;;;;5084938;28;20086;-59
2022/06/24 08:53:05;;;;;;;11.27;6.72;;;;;;;;;;5078060;28;20387;-60
2022/06/24 08:55:33;;;;;;;11.15;6.75;;;;;;;;;;5070742;28;20037;-59
2022/06/24 08:57:59;;;;;;;8.55;6.25;;;;;;;;;;5072401;28;20045;-60
2022/06/24 09:00:25;;;;;;;12.18;6.18;;;;;;;;;;5082987;28;20638;-60
2022/06/24 09:02:51;;;;;;;12.13;7.10;;;;;;;;;;5072050;28;20067;-60
2022/06/24 09:05:18;;;;;;;8.52;6.53;;;;;;;;;;5083661;28;20469;-60
2022/06/24 09:07:44;;;;;;;11.20;6.38;;;;;;;;;;5081846;28;20048;-60
2022/06/24 09:10:12;;;;;;;9.88;6.82;;;;;;;;;;5083044;28;20318;-61
2022/06/24 09:12:39;;;;;;;6.15;5.45;;;;;;;;;;5084643;28;20090;-59
2022/06/24 09:15:06;;;;;;;7.43;5.43;;;;;;;;;;5076508;28;20118;-60
2022/06/24 09:17:33;;;;;;;8.60;5.70;;;;;;;;;;5071945;28;20127;-60
2022/06/24 09:20:06;;;;;;;8.48;6.15;;;;;;;;;;5083156;28;20092;-60
2022/06/24 09:22:32;;;;;;;11.40;5.53;;;;;;;;;;5082540;28;20038;-60
2022/06/24 09:25:01;;;;;;;9.80;5.97;;;;;;;;;;5077506;28;20048;-60
2022/06/24 09:27:27;;;;;;;9.70;6.47;;;;;;;;;;5070644;28;20123;-60
2022/06/24 09:29:53;;;;;;;7.68;5.15;;;;;;;;;;5076377;28;20063;-60
2022/06/24 09:32:19;;;;;;;7.72;5.43;;;;;;;;;;5084251;28;20550;-60
2022/06/24 09:35:02;;;;;;;7.47;4.88;;;;;;;;;;5083310;28;20066;-60
2022/06/24 09:37:39;;;;;;;8.52;5.47;;;;;;;;;;5076037;28;20132;-60
2022/06/24 09:40:18;;;;;;;11.32;6.10;;;;;;;;;;5077920;28;20098;-59
2022/06/24 09:42:51;;;;;;;10.50;5.40;;;;;;;;;;5084224;28;20037;-60
2022/06/24 09:45:17;;;;;;;11.85;4.63;;;;;;;;;;5083556;28;20079;-59
2022/06/24 09:47:48;;;;;;;16.35;5.18;;;;;;;;;;5082591;28;20062;-60
2022/06/24 09:50:14;;;;;;;14.20;4.88;;;;;;;;;;5071910;28;20041;-60
2022/06/24 09:52:41;;;;;;;10.95;4.63;;;;;;;;;;5077200;28;20055;-60
2022/06/24 09:55:08;;;;;;;9.03;4.93;;;;;;;;;;5070646;28;20045;-59
2022/06/24 09:57:34;;;;;;;9.00;4.05;;;;;;;;;;5065995;28;20049;-59
2022/06/24 10:02:48;;;;;;;11.63;4.20;;;;;;;;;;5074621;28;20036;-59
2022/06/24 10:05:16;;;;;;;7.68;4.43;;;;;;;;;;5077251;28;20043;-59
2022/06/24 10:07:44;;;;;;;;;;;;;;;;;;5097620;28;20059;-60
2022/06/24 10:10:11;;;;;;;4.60;3.30;;;;;;;;;;5081168;28;20719;-62
2022/06/24 10:12:40;;;;;;;7.38;3.10;;;;;;;;;;5073503;28;20115;-59
2022/06/24 10:15:06;;;;;;;6.80;2.55;;;;;;;;;;5081832;28;20052;-59
2022/06/24 10:17:34;;;;;;;2.88;2.28;;;;;;;;;;5081030;28;20409;-59
2022/06/24 10:20:01;;;;;;;7.82;2.28;;;;;;;;;;5080404;28;20478;-60
2022/06/24 10:22:36;;;;;;;5.35;2.47;;;;;;;;;;5082582;28;20051;-59
2022/06/24 10:25:03;;;;;;;5.38;2.08;;;;;;;;;;5082610;28;20035;-60
2022/06/24 10:27:47;;;;;;;3.97;2.20;;;;;;;;;;5081018;28;20039;-59
2022/06/24 10:30:33;;;;;;;5.70;1.98;;;;;;;;;;5081859;28;20055;-60
2022/06/24 10:33:19;;;;;;;4.78;2.17;;;;;;;;;;5079583;28;20052;-60
2022/06/24 10:35:58;;;;;;;4.72;2.60;;;;;;;;;;5079895;28;20409;-60
2022/06/24 10:38:25;;;;;;;2.90;2.00;;;;;;;;;;5081809;28;20076;-60
2022/06/24 10:40:52;;;;;;;3.87;2.07;;;;;;;;;;5081302;28;20036;-59
2022/06/24 10:43:36;;;;;;;4.15;2.40;;;;;;;;;;5079417;28;20396;-59
2022/06/24 10:46:12;;;;;;;5.35;2.20;;;;;;;;;;5075956;28;20123;-59
2022/06/24 10:48:44;;;;;;;9.00;2.38;;;;;;;;;;5075190;28;21688;-59
2022/06/24 10:51:15;;;;;;;3.92;2.30;;;;;;;;;;5069088;28;20052;-60
2022/06/24 10:54:12;;;;;;;4.28;2.35;;;;;;;;;;5076502;28;20494;-60
2022/06/24 10:56:38;;;;;;;7.50;2.17;;;;;;;;;;5074585;28;20040;-59
2022/06/24 10:59:04;;;;;;;3.92;2.13;;;;;;;;;;5073946;28;20117;-60
2022/06/24 11:01:31;;;;;;;5.63;2.97;;;;;;;;;;5074883;28;20842;-60
2022/06/24 11:03:58;;;;;;;3.92;2.33;;;;;;;;;;5080764;28;20232;-59
2022/06/24 11:06:24;;;;;;;6.60;2.40;;;;;;;;;;5082401;28;20048;-59
2022/06/24 11:08:50;;;;;;;3.85;2.05;;;;;;;;;;5085877;28;20363;-60
2022/06/24 11:11:27;;;;;;;4.28;2.40;;;;;;;;;;5084803;28;20079;-59
2022/06/24 11:13:53;;;;;;;4.75;2.45;;;;;;;;;;5085572;28;20040;-59
2022/06/24 11:16:19;;;;;;;4.35;2.40;;;;;;;;;;5085523;28;20047;-59
2022/06/24 11:18:49;;;;;;;4.38;2.28;;;;;;;;;;5084389;28;20206;-59
2022/06/24 11:21:17;;;;;;;4.30;2.30;;;;;;;;;;5084056;28;20110;-60
2022/06/24 11:23:45;;;;;;;5.63;2.70;;;;;;;;;;5084236;28;20048;-60
2022/06/24 11:26:16;;;;;;;4.95;2.65;;;;;;;;;;5085980;28;20046;-58
2022/06/24 11:28:43;;;;;;;5.72;2.80;;;;;;;;;;5085597;28;20050;-59
2022/06/24 11:31:15;;;;;;;5.13;2.92;;;;;;;;;;5083124;28;20039;-58
2022/06/24 11:33:41;;;;;;;3.22;2.50;;;;;;;;;;5085199;28;20079;-58
2022/06/24 11:36:08;;;;;;;4.60;2.45;;;;;;;;;;5082688;28;20060;-58
2022/06/24 11:38:47;;;;;;;4.20;2.77;;;;;;;;;;5086302;28;20485;-58
2022/06/24 11:41:21;;;;;;;6.30;2.95;;;;;;;;;;5085371;28;20048;-58
2022/06/24 11:43:50;;;;;;;3.90;3.17;;;;;;;;;;5082014;28;20047;-57
2022/06/24 11:46:17;;;;;;;4.20;3.00;;;;;;;;;;5082515;28;20048;-58
2022/06/24 11:48:43;;;;;;;8.27;2.92;;;;;;;;;;5073425;28;20146;-58
2022/06/24 11:51:18;;;;;;;3.88;3.13;;;;;;;;;;5088503;28;20075;-58
2022/06/24 11:53:56;;;;;;;7.05;3.80;;;;;;;;;;5087085;28;20040;-58
2022/06/24 11:56:22;;;;;;;6.03;3.90;;;;;;;;;;5087912;28;20105;-58
2022/06/24 11:58:48;;;;;;;4.57;4.05;;;;;;;;;;5087711;28;20039;-58
2022/06/24 12:01:15;;;;;;;5.90;3.70;;;;;;;;;;5088075;28;20052;-58
2022/06/24 12:03:41;;;;;;;7.97;4.30;;;;;;;;;;5087410;28;20044;-59
2022/06/24 12:06:10;;;;;;;10.13;5.18;;;;;;;;;;5088321;28;20036;-58
2022/06/24 12:08:37;;;;;;;7.78;5.50;;;;;;;;;;5088374;28;20044;-58
2022/06/24 12:11:13;;;;;;;8.07;6.32;;;;;;;;;;5087586;28;20446;-58
2022/06/24 12:13:39;;;;;;;7.80;5.80;;;;;;;;;;5088380;28;20039;-58
2022/06/24 12:16:06;;;;;;;10.02;6.22;;;;;;;;;;5087634;28;20047;-58
2022/06/24 12:18:32;;;;;;;9.77;6.40;;;;;;;;;;5085961;28;20044;-58
2022/06/24 12:20:59;;;;;;;10.75;7.55;;;;;;;;;;5087582;28;21853;-58
2022/06/24 12:23:31;;;;;;;11.65;8.80;;;;;;;;;;5087387;28;20044;-58
2022/06/24 12:25:57;;;;;;;11.77;8.68;;;;;;;;;;5087649;28;20452;-58
2022/06/24 12:28:25;;;;;;;12.85;9.60;;;;;;;;;;5069008;28;20048;-58
2022/06/24 12:30:55;;;;;;;13.70;10.27;;;;;;;;;;5087154;28;20044;-58
2022/06/24 12:33:21;;;;;;;12.63;9.88;;;;;;;;;;5086637;28;20520;-58
2022/06/24 12:35:49;;;;;;;11.70;10.32;;;;;;;;;;5087192;28;20075;-59
2022/06/24 12:38:15;;;;;;;12.98;11.35;;;;;;;;;;5085594;28;20048;-59
2022/06/24 12:40:42;;;;;;;15.57;11.18;;;;;;;;;;5087048;28;20043;-59
2022/06/24 12:43:11;;;;;;;14.82;12.63;;;;;;;;;;5085307;28;20032;-59
2022/06/24 12:45:38;;;;;;;17.65;13.23;;;;;;;;;;5085713;28;20054;-59
2022/06/24 12:51:00;;;;;;;15.50;11.32;;;;;;;;;;5086593;28;20088;-59
2022/06/24 12:53:27;;;;;;;17.48;12.18;;;;;;;;;;5082971;28;20129;-58
2022/06/24 12:55:53;;;;;;;13.05;9.95;;;;;;;;;;5085961;28;20047;-60
2022/06/24 12:58:20;;;;;;;18.13;12.38;;;;;;;;;;5085843;28;20075;-59
2022/06/24 13:00:46;;;;;;;16.80;13.40;;;;;;;;;;5081462;28;20052;-59
2022/06/24 13:03:16;;;;;;;13.35;11.82;;;;;;;;;;5084477;28;20051;-59
2022/06/24 13:05:42;;;;;;;17.95;13.68;;;;;;;;;;5086055;28;20095;-60
2022/06/24 13:08:08;;;;;;;18.88;13.90;;;;;;;;;;5085562;28;20044;-60
2022/06/24 13:10:35;;;;;;;19.30;13.10;;;;;;;;;;5083604;28;20043;-61
2022/06/24 13:13:02;;;;;;;19.50;14.10;;;;;;;;;;5083750;28;20047;-60
2022/06/24 13:15:29;;;;;;;18.02;13.38;;;;;;;;;;5084391;28;20294;-59
2022/06/24 13:17:55;;;;;;;15.90;12.80;;;;;;;;;;5084163;28;20094;-60
2022/06/24 13:20:21;;;;;;;19.38;13.18;;;;;;;;;;5085369;28;20036;-60
2022/06/24 13:22:47;;;;;;;18.73;13.52;;;;;;;;;;5084443;28;20123;-58
2022/06/24 13:25:14;;;;;;;22.52;15.32;;;;;;;;;;5084758;28;20071;-59
2022/06/24 13:27:40;;;;;;;16.95;13.25;;;;;;;;;;5083604;28;20062;-63
2022/06/24 13:30:07;;;;;;;16.63;13.13;;;;;;;;;;5093975;28;20387;-59
2022/06/24 13:32:33;;;;;;;18.52;13.55;;;;;;;;;;5074252;28;20139;-59
2022/06/24 13:34:59;;;;;;;22.58;13.98;;;;;;;;;;5072202;28;20067;-59
2022/06/24 13:37:25;;;;;;;22.52;14.07;;;;;;;;;;5074027;28;20041;-59
2022/06/24 13:39:52;;;;;;;18.80;14.40;;;;;;;;;;5073134;28;20048;-59
2022/06/24 13:42:18;;;;;;;16.15;13.18;;;;;;;;;;5080636;28;20165;-59
2022/06/24 13:44:44;;;;;;;16.73;13.55;;;;;;;;;;5072889;28;20039;-59
2022/06/24 13:47:10;;;;;;;17.50;13.05;;;;;;;;;;5068805;28;20036;-60
2022/06/24 13:49:37;;;;;;;18.95;15.00;;;;;;;;;;5073909;28;20037;-59
2022/06/24 13:52:03;;;;;;;17.50;14.23;;;;;;;;;;5077651;28;20185;-60
2022/06/24 13:54:29;;;;;;;15.70;12.52;;;;;;;;;;5077505;28;20079;-59
2022/06/24 13:56:56;;;;;;;21.13;12.93;;;;;;;;;;5069900;28;20028;-59
2022/06/24 13:59:22;;;;;;;17.63;11.93;;;;;;;;;;5079441;28;20071;-59
2022/06/24 14:01:48;;;;;;;19.27;15.00;;;;;;;;;;5080917;28;20028;-60
2022/06/24 14:04:14;;;;;;;19.40;14.35;;;;;;;;;;5072691;28;20043;-60
2022/06/24 14:06:40;;;;;;;21.83;14.43;;;;;;;;;;5076285;28;20049;-60
2022/06/24 14:09:06;;;;;;;21.75;15.15;;;;;;;;;;5084706;28;20036;-59
2022/06/24 14:11:33;;;;;;;20.20;15.02;;;;;;;;;;5075211;28;20123;-61
2022/06/24 14:13:59;;;;;;;17.67;14.30;;;;;;;;;;5070320;28;20055;-61
2022/06/24 14:16:25;;;;;;;16.85;13.32;;;;;;;;;;5069278;28;20299;-61
2022/06/24 14:18:51;;;;;;;15.85;12.98;;;;;;;;;;5068062;28;20046;-61
2022/06/24 14:21:17;;;;;;;20.80;13.77;;;;;;;;;;5079103;28;20036;-61
2022/06/24 14:26:28;;;;;;;17.10;14.52;;;;;;;;;;5068486;28;20044;-61
2022/06/24 14:28:55;;;;;;;13.82;12.00;;;;;;;;;;5067847;28;20037;-61
2022/06/24 14:31:21;;;;;;;16.98;12.48;;;;;;;;;;5080113;28;20052;-61
2022/06/24 14:33:47;;;;;;;15.15;11.68;;;;;;;;;;5073624;28;20085;-60
2022/06/24 14:36:14;;;;;;;13.13;10.80;;;;;;;;;;5082998;28;20055;-61
2022/06/24 14:41:26;;;;;;;12.60;10.75;;;;;;;;;;5071450;28;20076;-61
2022/06/24 14:43:52;;;;;;;11.43;9.80;;;;;;;;;;5068225;28;20127;-61
2022/06/24 14:46:19;;;;;;;12.63;10.20;;;;;;;;;;5070017;28;20290;-61
2022/06/24 14:48:45;;;;;;;13.35;9.68;;;;;;;;;;5071643;28;20040;-60
2022/06/24 14:51:11;;;;;;;10.93;9.45;;;;;;;;;;5070376;28;20036;-61
2022/06/24 14:53:37;;;;;;;17.48;9.65;;;;;;;;;;5073912;28;20028;-61
2022/06/24 14:56:04;;;;;;;11.18;9.07;;;;;;;;;;5067590;28;20136;-61
2022/06/24 14:58:30;;;;;;;10.27;9.27;;;;;;;;;;5096938;28;20138;-61